Time;durP1;ratioP1;P1;durP2;ratioP2;P2;SDS_P1;SDS_P2;PMS_P1;PMS_P2;Temp;Humidity;BMP_temperature;BMP_pressure;BME280_temperature;BME280_humidity;BME280_pressure;Samples;Min_cycle;Max_cycle;Signal;HPM_P1;HPM_P2
2022/06/17 00:01:07;;;;;;;14.10;6.50;;;18.40;56.60;;;;;;9182249;19;20014;-67
2022/06/17 00:04:13;;;;;;;11.93;7.00;;;18.30;56.70;;;;;;9174364;19;20023;-67
2022/06/17 00:07:20;;;;;;;10.30;6.20;;;18.30;56.80;;;;;;9180935;19;20504;-66
2022/06/17 00:10:28;;;;;;;12.38;6.95;;;18.20;57.00;;;;;;9179937;19;20023;-66
2022/06/17 00:13:33;;;;;;;9.73;6.72;;;18.20;57.10;;;;;;9179230;19;20483;-67
2022/06/17 00:16:38;;;;;;;12.43;7.18;;;18.10;57.10;;;;;;9178895;19;20033;-68
2022/06/17 00:19:43;;;;;;;12.13;6.22;;;18.10;57.30;;;;;;9180318;19;20018;-67
2022/06/17 00:22:51;;;;;;;17.23;6.80;;;18.00;57.30;;;;;;9179367;19;20053;-68
2022/06/17 00:25:56;;;;;;;7.85;6.18;;;18.00;57.50;;;;;;9181605;19;20472;-68
2022/06/17 00:29:01;;;;;;;12.68;6.72;;;18.00;57.50;;;;;;9179674;19;20019;-68
2022/06/17 00:32:07;;;;;;;15.68;7.70;;;17.90;57.60;;;;;;9180497;19;20022;-67
2022/06/17 00:35:13;;;;;;;13.18;8.30;;;17.90;57.80;;;;;;9181100;19;20030;-69
2022/06/17 00:38:24;;;;;;;17.55;7.82;;;17.80;57.80;;;;;;9181266;19;20025;-68
2022/06/17 00:41:36;;;;;;;15.30;8.15;;;17.80;58.10;;;;;;9180471;19;20018;-67
2022/06/17 00:44:46;;;;;;;12.93;7.70;;;17.80;58.10;;;;;;9177639;19;20030;-67
2022/06/17 00:47:59;;;;;;;11.10;7.30;;;17.70;58.20;;;;;;9178594;19;20018;-68
2022/06/17 00:51:16;;;;;;;11.23;7.43;;;17.70;58.40;;;;;;9178455;19;20023;-67
2022/06/17 00:54:28;;;;;;;14.25;8.05;;;17.60;58.40;;;;;;9180959;19;20014;-67
2022/06/17 00:57:43;;;;;;;15.30;7.65;;;17.60;58.50;;;;;;9178174;19;20022;-67
2022/06/17 01:00:52;;;;;;;10.60;7.93;;;17.50;58.60;;;;;;9177816;19;20018;-67
2022/06/17 01:04:02;;;;;;;11.15;7.63;;;17.50;58.60;;;;;;9173736;19;20052;-67
2022/06/17 01:07:16;;;;;;;12.68;9.15;;;17.40;58.70;;;;;;9176485;19;20014;-68
2022/06/17 01:10:22;;;;;;;13.15;8.13;;;17.40;58.90;;;;;;9177051;19;20026;-67
2022/06/17 01:13:27;;;;;;;12.57;7.78;;;17.30;58.80;;;;;;9176803;19;20499;-68
2022/06/17 01:16:43;;;;;;;12.77;7.90;;;17.30;58.90;;;;;;9177166;19;20348;-67
2022/06/17 01:19:59;;;;;;;9.98;7.15;;;17.30;59.00;;;;;;9176189;19;20026;-67
2022/06/17 01:23:15;;;;;;;10.60;7.38;;;17.20;59.10;;;;;;9176636;19;20014;-68
2022/06/17 01:26:25;;;;;;;10.13;6.82;;;17.20;59.30;;;;;;9176824;19;20038;-67
2022/06/17 01:29:34;;;;;;;9.35;6.55;;;17.10;59.20;;;;;;9176388;19;20097;-66
2022/06/17 01:32:45;;;;;;;12.60;7.75;;;17.10;59.40;;;;;;9174736;19;20014;-67
2022/06/17 01:35:55;;;;;;;9.13;7.40;;;17.10;59.50;;;;;;9179511;19;20025;-67
2022/06/17 01:39:03;;;;;;;13.48;7.32;;;17.00;59.60;;;;;;9176201;19;20522;-67
2022/06/17 01:42:09;;;;;;;11.05;7.25;;;17.00;59.70;;;;;;9176744;19;20030;-68
2022/06/17 01:45:37;;;;;;;14.90;8.73;;;17.00;59.70;;;;;;9173842;19;20045;-67
2022/06/17 01:48:51;;;;;;;10.45;6.85;;;16.90;60.00;;;;;;9176002;19;20025;-67
2022/06/17 01:52:04;;;;;;;11.35;7.85;;;16.90;60.00;;;;;;9175864;19;20049;-69
2022/06/17 01:55:17;;;;;;;11.48;7.60;;;16.90;60.00;;;;;;9175010;19;20086;-67
2022/06/17 01:58:26;;;;;;;13.43;7.72;;;16.80;60.20;;;;;;9175200;19;20026;-67
2022/06/17 02:01:39;;;;;;;10.65;7.82;;;16.80;60.10;;;;;;9176189;19;20019;-70
2022/06/17 02:04:50;;;;;;;10.40;7.50;;;16.80;60.40;;;;;;9170613;19;20025;-68
2022/06/17 02:07:58;;;;;;;12.15;7.25;;;16.70;60.30;;;;;;9175408;19;21679;-68
2022/06/17 02:11:10;;;;;;;13.57;7.57;;;16.70;60.40;;;;;;9174840;19;20547;-68
2022/06/17 02:14:20;;;;;;;11.80;7.95;;;16.70;60.60;;;;;;9176360;19;20018;-68
2022/06/17 02:17:38;;;;;;;13.38;8.18;;;16.70;60.50;;;;;;9176223;19;20845;-67
2022/06/17 02:21:17;;;;;;;14.85;8.27;;;16.60;60.60;;;;;;9175455;19;20019;-67
2022/06/17 02:24:23;;;;;;;13.18;7.72;;;16.60;60.70;;;;;;9174968;19;20015;-67
2022/06/17 02:27:33;;;;;;;12.10;8.25;;;16.60;60.70;;;;;;9175395;19;20368;-67
2022/06/17 02:30:40;;;;;;;14.77;8.27;;;16.50;61.50;;;;;;9175072;19;20492;-67
2022/06/17 02:33:49;;;;;;;12.30;8.52;;;16.50;60.90;;;;;;9175970;19;20503;-68
2022/06/17 02:36:57;;;;;;;20.02;8.52;;;16.50;61.10;;;;;;9173723;19;20372;-67
2022/06/17 02:40:08;;;;;;;12.05;8.57;;;16.40;61.00;;;;;;9173916;19;20030;-67
2022/06/17 02:43:20;;;;;;;26.67;8.65;;;16.40;61.10;;;;;;9174366;19;20030;-67
2022/06/17 02:46:29;;;;;;;14.43;8.80;;;16.40;61.30;;;;;;9171389;19;20510;-68
2022/06/17 02:49:37;;;;;;;11.68;8.52;;;16.40;61.40;;;;;;9175962;19;20082;-67
2022/06/17 02:52:43;;;;;;;14.05;8.90;;;16.40;61.40;;;;;;9178425;19;20070;-67
2022/06/17 02:55:48;;;;;;;18.55;8.68;;;16.30;61.40;;;;;;9182993;19;20041;-68
2022/06/17 02:59:05;;;;;;;14.18;9.15;;;16.30;61.50;;;;;;9184197;19;20049;-67
2022/06/17 03:02:18;;;;;;;13.15;8.90;;;16.30;61.70;;;;;;9183990;19;20017;-68
2022/06/17 03:05:32;;;;;;;13.60;8.52;;;16.20;61.60;;;;;;9181789;19;21369;-67
2022/06/17 03:08:40;;;;;;;14.73;9.07;;;16.20;61.60;;;;;;9180178;19;20015;-67
2022/06/17 03:11:48;;;;;;;20.42;9.23;;;16.20;61.70;;;;;;9182484;19;20014;-66
2022/06/17 03:15:03;;;;;;;14.23;8.82;;;16.20;61.80;;;;;;9182097;19;20015;-67
2022/06/17 03:18:12;;;;;;;14.00;9.40;;;16.20;62.10;;;;;;9183532;19;20010;-66
2022/06/17 03:21:20;;;;;;;15.77;8.80;;;16.20;61.90;;;;;;9183784;19;20011;-68
2022/06/17 03:24:31;;;;;;;14.18;9.43;;;16.10;62.00;;;;;;9181930;19;20029;-67
2022/06/17 03:27:41;;;;;;;13.63;9.38;;;16.10;62.20;;;;;;9181610;19;20029;-67
2022/06/17 03:30:54;;;;;;;15.88;9.70;;;16.10;62.30;;;;;;9182268;19;20089;-67
2022/06/17 03:34:03;;;;;;;13.32;8.60;;;16.10;62.30;;;;;;9181596;19;20491;-67
2022/06/17 03:37:18;;;;;;;16.10;9.07;;;16.10;62.40;;;;;;9180928;19;20014;-67
2022/06/17 03:40:31;;;;;;;14.20;8.93;;;16.10;62.40;;;;;;9180970;19;20033;-67
2022/06/17 03:43:43;;;;;;;13.95;9.45;;;16.10;62.50;;;;;;9180115;19;20018;-67
2022/06/17 03:47:02;;;;;;;10.73;8.07;;;16.10;62.50;;;;;;9177655;19;20026;-67
2022/06/17 03:50:18;;;;;;;13.98;8.52;;;16.00;62.60;;;;;;9180931;19;20017;-69
2022/06/17 03:53:31;;;;;;;13.48;9.27;;;16.10;62.60;;;;;;9179762;19;20025;-68
2022/06/17 03:56:38;;;;;;;15.38;9.25;;;16.10;62.80;;;;;;9181001;19;20015;-67
2022/06/17 03:59:47;;;;;;;13.20;9.07;;;16.10;62.80;;;;;;9182190;19;20017;-67
2022/06/17 04:02:57;;;;;;;12.77;8.82;;;16.10;62.90;;;;;;9177140;19;20011;-68
2022/06/17 04:06:07;;;;;;;20.95;9.07;;;16.10;63.00;;;;;;9181102;19;20010;-67
2022/06/17 04:09:19;;;;;;;12.15;8.90;;;16.10;63.00;;;;;;9181450;19;20018;-68
2022/06/17 04:12:28;;;;;;;18.73;9.15;;;16.10;63.10;;;;;;9183217;19;20018;-68
2022/06/17 04:15:59;;;;;;;17.02;9.30;;;16.10;63.10;;;;;;9184828;19;20017;-68
2022/06/17 04:19:17;;;;;;;20.13;9.70;;;16.20;63.20;;;;;;9183287;19;20110;-67
2022/06/17 04:22:31;;;;;;;17.33;9.48;;;16.20;63.40;;;;;;9183294;19;20487;-68
2022/06/17 04:25:53;;;;;;;14.18;10.50;;;16.20;63.20;;;;;;9182488;19;20015;-67
2022/06/17 04:29:02;;;;;;;16.30;9.98;;;16.20;63.20;;;;;;9183761;19;20018;-68
2022/06/17 04:32:19;;;;;;;17.15;10.35;;;16.20;63.30;;;;;;9182695;19;20018;-68
2022/06/17 04:35:28;;;;;;;16.48;9.70;;;16.20;63.50;;;;;;9182035;19;20419;-67
2022/06/17 04:38:47;;;;;;;13.20;8.48;;;16.20;63.40;;;;;;9182544;19;20018;-68
2022/06/17 04:42:06;;;;;;;13.48;8.30;;;16.30;63.50;;;;;;9182074;19;20052;-68
2022/06/17 04:45:21;;;;;;;13.00;8.60;;;16.30;63.40;;;;;;9179479;19;20479;-68
2022/06/17 04:48:27;;;;;;;14.70;8.80;;;16.30;63.60;;;;;;9181995;19;20042;-69
2022/06/17 04:51:37;;;;;;;14.05;8.77;;;16.30;63.40;;;;;;9183689;19;20011;-67
2022/06/17 04:54:47;;;;;;;16.42;8.98;;;16.40;63.70;;;;;;9182071;19;20010;-68
2022/06/17 04:58:07;;;;;;;13.52;8.95;;;16.40;63.50;;;;;;9181576;19;20074;-68
2022/06/17 05:01:19;;;;;;;14.30;8.13;;;16.40;63.60;;;;;;9181288;19;20064;-68
2022/06/17 05:04:50;;;;;;;12.07;8.53;;;16.50;63.90;;;;;;9178729;19;20007;-68
2022/06/17 05:07:59;;;;;;;12.73;8.65;;;16.50;63.70;;;;;;9180203;19;20010;-68
2022/06/17 05:11:19;;;;;;;26.70;9.55;;;16.50;63.80;;;;;;9181242;19;20394;-68
2022/06/17 05:14:33;;;;;;;20.33;8.65;;;16.60;63.80;;;;;;9179692;19;20034;-67
2022/06/17 05:17:39;;;;;;;13.75;8.10;;;16.60;63.80;;;;;;9182379;19;20920;-68
2022/06/17 05:20:45;;;;;;;15.07;8.60;;;16.70;63.80;;;;;;9180943;19;20045;-68
2022/06/17 05:23:57;;;;;;;13.30;9.15;;;16.70;63.90;;;;;;9181651;19;20014;-68
2022/06/17 05:27:05;;;;;;;13.07;8.13;;;16.70;64.00;;;;;;9179698;19;20024;-68
2022/06/17 05:30:11;;;;;;;13.23;8.25;;;16.80;64.00;;;;;;9180994;19;20413;-67
2022/06/17 05:33:18;;;;;;;18.23;8.90;;;16.80;64.00;;;;;;9180165;19;20010;-68
2022/06/17 05:36:23;;;;;;;11.10;8.50;;;16.90;64.10;;;;;;9182401;19;20017;-69
2022/06/17 05:39:31;;;;;;;15.30;8.70;;;16.90;64.10;;;;;;9179166;19;20019;-68
2022/06/17 05:42:37;;;;;;;16.15;8.57;;;17.00;64.20;;;;;;9180939;19;20480;-68
2022/06/17 05:45:44;;;;;;;13.13;8.77;;;17.10;64.20;;;;;;9178949;19;20015;-68
2022/06/17 05:49:03;;;;;;;14.98;9.18;;;17.10;64.20;;;;;;9179943;19;20081;-66
2022/06/17 05:52:26;;;;;;;14.90;8.40;;;17.10;64.30;;;;;;9181235;19;20456;-68
2022/06/17 05:55:41;;;;;;;12.55;9.05;;;17.20;64.40;;;;;;9179737;19;20006;-68
2022/06/17 05:58:46;;;;;;;15.55;8.25;;;17.30;64.60;;;;;;9179753;19;20490;-68
2022/06/17 06:01:52;;;;;;;12.57;7.57;;;17.40;64.60;;;;;;9180268;19;20464;-70
2022/06/17 06:05:14;;;;;;;15.10;7.35;;;17.50;64.60;;;;;;9174806;19;20021;-68
2022/06/17 06:08:19;;;;;;;18.10;8.05;;;17.60;64.50;;;;;;9178948;19;20011;-68
2022/06/17 06:11:26;;;;;;;11.25;7.38;;;17.80;64.50;;;;;;9178866;19;20017;-68
2022/06/17 06:14:31;;;;;;;15.63;7.57;;;18.00;64.50;;;;;;9179472;19;20356;-68
2022/06/17 06:17:38;;;;;;;11.68;6.97;;;18.10;64.40;;;;;;9179220;19;20078;-67
2022/06/17 06:20:43;;;;;;;16.13;6.80;;;18.20;64.20;;;;;;9178500;19;20023;-68
2022/06/17 06:23:50;;;;;;;10.85;6.43;;;18.30;64.10;;;;;;9178222;19;20086;-68
2022/06/17 06:27:02;;;;;;;12.60;7.03;;;18.40;64.00;;;;;;9179798;19;20452;-67
2022/06/17 06:30:21;;;;;;;12.10;6.15;;;18.50;63.90;;;;;;9188533;19;20014;-68
2022/06/17 06:33:27;;;;;;;13.48;6.68;;;18.60;63.90;;;;;;9188471;19;20460;-68
2022/06/17 06:36:32;;;;;;;11.52;6.13;;;18.70;63.70;;;;;;9185630;19;20018;-68
2022/06/17 06:39:38;;;;;;;9.18;5.72;;;18.80;63.60;;;;;;9187770;19;20010;-68
2022/06/17 06:42:48;;;;;;;10.73;5.80;;;18.90;63.70;;;;;;9187250;19;20006;-68
2022/06/17 06:46:26;;;;;;;12.07;5.63;;;18.90;63.70;;;;;;9187742;19;20006;-67
2022/06/17 06:49:34;;;;;;;11.52;5.90;;;19.10;63.60;;;;;;9187293;19;20022;-68
2022/06/17 06:52:39;;;;;;;12.73;5.88;;;19.10;63.50;;;;;;9187309;19;20349;-68
2022/06/17 06:55:48;;;;;;;16.17;6.05;;;19.20;63.50;;;;;;9186955;19;20015;-68
2022/06/17 06:58:56;;;;;;;16.92;5.60;;;19.30;63.50;;;;;;9187688;19;20010;-67
2022/06/17 07:02:01;;;;;;;12.60;5.10;;;19.50;63.40;;;;;;9187264;19;20017;-67
2022/06/17 07:05:07;;;;;;;10.48;5.25;;;19.50;63.30;;;;;;9183351;19;20014;-68
2022/06/17 07:08:17;;;;;;;12.02;4.93;;;19.70;63.30;;;;;;9184608;19;20345;-68
2022/06/17 07:11:22;;;;;;;8.75;4.00;;;19.80;63.10;;;;;;9186523;19;20022;-67
2022/06/17 07:14:30;;;;;;;8.35;4.20;;;19.90;63.10;;;;;;9186210;19;20038;-68
2022/06/17 07:17:35;;;;;;;13.77;4.30;;;20.10;63.00;;;;;;9185880;19;20030;-67
2022/06/17 07:20:44;;;;;;;8.52;4.55;;;20.20;62.70;;;;;;9185948;19;20415;-68
2022/06/17 07:23:49;;;;;;;16.33;4.35;;;20.40;62.70;;;;;;9184983;19;20011;-67
2022/06/17 07:26:54;;;;;;;12.38;3.33;;;20.60;62.50;;;;;;9181771;19;20018;-68
2022/06/17 07:30:02;;;;;;;6.40;3.28;;;20.80;62.20;;;;;;9185739;19;20021;-69
2022/06/17 07:33:07;;;;;;;8.98;2.83;;;21.00;61.90;;;;;;9186321;19;20089;-67
2022/06/17 07:39:53;;;;;;;5.72;3.15;;;21.30;61.60;;;;;;9185459;19;20010;-66
2022/06/17 07:42:58;;;;;;;5.85;2.90;;;21.70;60.90;;;;;;9186594;19;20023;-68
2022/06/17 07:46:08;;;;;;;14.32;3.15;;;21.90;60.60;;;;;;9187202;19;20078;-66
2022/06/17 07:49:16;;;;;;;7.05;3.08;;;22.10;60.40;;;;;;9185395;19;20472;-66
2022/06/17 07:52:28;;;;;;;6.40;2.75;;;22.40;60.30;;;;;;9185086;19;20049;-66
2022/06/17 07:55:33;;;;;;;8.38;2.67;;;22.60;60.00;;;;;;9185411;19;20022;-67
2022/06/17 07:58:44;;;;;;;5.20;3.30;;;22.80;59.70;;;;;;9184602;19;20082;-66
2022/06/17 08:01:58;;;;;;;5.45;3.10;;;23.10;59.40;;;;;;9182233;19;20022;-66
2022/06/17 08:05:03;;;;;;;8.73;3.17;;;23.30;58.90;;;;;;9179007;19;20050;-65
2022/06/17 08:08:09;;;;;;;5.70;2.95;;;23.50;58.80;;;;;;9182473;19;20018;-66
2022/06/17 08:11:15;;;;;;;12.07;2.90;;;23.70;58.50;;;;;;9183112;19;20019;-66
2022/06/17 08:14:20;;;;;;;6.05;2.58;;;23.90;58.30;;;;;;9185491;19;20377;-66
2022/06/17 08:17:30;;;;;;;9.55;2.70;;;24.20;58.10;;;;;;9183431;19;20019;-66
2022/06/17 08:20:45;;;;;;;6.88;2.10;;;24.40;57.80;;;;;;9184204;19;20044;-65
2022/06/17 08:23:51;;;;;;;8.82;2.53;;;24.60;57.40;;;;;;9182465;19;20014;-65
2022/06/17 08:26:59;;;;;;;5.97;2.42;;;24.80;57.10;;;;;;9183304;19;20365;-64
2022/06/17 08:30:04;;;;;;;11.02;2.83;;;24.90;56.70;;;;;;9178722;19;20014;-65
2022/06/17 08:33:12;;;;;;;8.90;2.65;;;25.10;56.60;;;;;;9179554;19;20015;-66
2022/06/17 08:36:37;;;;;;;7.13;2.33;;;25.20;56.20;;;;;;9175377;19;20122;-67
2022/06/17 08:39:46;;;;;;;5.85;1.90;;;25.40;56.20;;;;;;9175610;19;20021;-65
2022/06/17 08:43:01;;;;;;;8.48;2.13;;;25.60;56.00;;;;;;9175056;19;20010;-66
2022/06/17 08:46:22;;;;;;;5.05;2.25;;;25.70;55.50;;;;;;9177248;19;20021;-67
2022/06/17 08:49:49;;;;;;;6.35;2.17;;;25.90;55.20;;;;;;9170117;19;20026;-67
2022/06/17 08:53:30;;;;;;;4.03;2.25;;;26.10;54.90;;;;;;9177643;19;20007;-67
2022/06/17 08:57:00;;;;;;;6.55;2.00;;;26.20;54.80;;;;;;9179050;19;20018;-66
2022/06/17 09:00:13;;;;;;;8.02;1.90;;;26.30;54.50;;;;;;9177584;19;20023;-66
2022/06/17 09:03:46;;;;;;;7.22;1.98;;;26.50;54.30;;;;;;9171162;19;20023;-65
2022/06/17 09:07:06;;;;;;;6.15;1.75;;;26.60;54.00;;;;;;9176842;19;20026;-66
2022/06/17 09:10:25;;;;;;;3.65;1.63;;;26.60;53.70;;;;;;9176569;19;20014;-65
2022/06/17 09:13:46;;;;;;;6.38;2.08;;;26.70;53.30;;;;;;9177728;19;20014;-67
2022/06/17 09:17:04;;;;;;;3.17;1.90;;;26.90;53.30;;;;;;9175783;19;20014;-68
2022/06/17 09:20:11;;;;;;;8.50;1.85;;;27.00;53.00;;;;;;9175686;19;20019;-66
2022/06/17 09:23:25;;;;;;;4.18;1.63;;;27.00;52.80;;;;;;9175053;19;20006;-67
2022/06/17 09:26:34;;;;;;;4.40;1.80;;;27.10;52.40;;;;;;9173295;19;20026;-66
2022/06/17 09:29:43;;;;;;;7.22;2.25;;;27.20;52.40;;;;;;9172651;19;20015;-67
2022/06/17 09:32:54;;;;;;;9.68;2.75;;;27.20;52.30;;;;;;9176469;19;20365;-65
2022/06/17 09:36:08;;;;;;;4.10;1.92;;;27.30;52.20;;;;;;9174103;19;20025;-66
2022/06/17 09:39:20;;;;;;;4.97;2.17;;;27.40;52.10;;;;;;9176572;19;20342;-66
2022/06/17 09:42:34;;;;;;;9.32;2.15;;;27.50;51.90;;;;;;9173419;19;20038;-67
2022/06/17 09:45:42;;;;;;;5.75;1.85;;;27.60;51.70;;;;;;9176696;19;20029;-66
2022/06/17 09:48:55;;;;;;;5.70;2.22;;;27.70;51.70;;;;;;9171782;19;20357;-66
2022/06/17 09:52:09;;;;;;;9.63;2.20;;;27.80;51.30;;;;;;9174262;19;20014;-66
2022/06/17 09:55:20;;;;;;;13.23;2.67;;;27.90;51.30;;;;;;9173310;19;20795;-66
2022/06/17 09:58:31;;;;;;;8.73;1.67;;;28.10;51.10;;;;;;9173937;19;20022;-65
2022/06/17 10:01:48;;;;;;;4.90;1.92;;;28.10;50.80;;;;;;9178408;19;20018;-66
2022/06/17 10:04:54;;;;;;;7.43;1.90;;;28.20;50.80;;;;;;9179918;19;20014;-65
2022/06/17 10:08:08;;;;;;;8.48;2.58;;;28.30;50.70;;;;;;9183372;19;20025;-67
2022/06/17 10:11:23;;;;;;;7.15;2.58;;;28.40;50.30;;;;;;9185107;19;20018;-67
2022/06/17 10:14:51;;;;;;;9.32;2.33;;;28.50;50.10;;;;;;9184372;19;20019;-65
2022/06/17 10:21:39;;;;;;;5.40;2.00;;;28.70;49.90;;;;;;9179468;19;20029;-66
2022/06/17 10:24:58;;;;;;;12.88;2.65;;;28.80;49.70;;;;;;9180139;19;20018;-65
2022/06/17 10:28:19;;;;;;;5.05;2.33;;;28.80;49.40;;;;;;9177847;19;20014;-68
2022/06/17 10:31:36;;;;;;;6.32;2.22;;;28.90;49.20;;;;;;9181387;19;20029;-67
2022/06/17 10:34:47;;;;;;;7.03;2.38;;;28.90;49.10;;;;;;9179755;19;20365;-66
2022/06/17 10:37:52;;;;;;;4.60;1.77;;;28.90;49.10;;;;;;9179838;19;20015;-67
2022/06/17 10:41:00;;;;;;;7.53;2.30;;;28.80;49.00;;;;;;9181642;19;20010;-66
2022/06/17 10:44:09;;;;;;;10.10;2.45;;;28.80;48.90;;;;;;9179194;19;20547;-65
2022/06/17 10:47:27;;;;;;;8.23;2.90;;;28.80;48.90;;;;;;9178060;19;20021;-66
2022/06/17 10:50:33;;;;;;;5.68;2.22;;;28.80;48.70;;;;;;9176887;19;20029;-66
2022/06/17 10:53:46;;;;;;;4.63;2.20;;;28.80;48.80;;;;;;9181488;19;20538;-65
2022/06/17 10:57:03;;;;;;;4.57;2.03;;;28.80;48.60;;;;;;9180776;19;20018;-66
2022/06/17 11:00:36;;;;;;;6.35;2.20;;;28.80;48.30;;;;;;9179777;19;20026;-67
2022/06/17 11:03:45;;;;;;;6.45;2.00;;;28.80;48.30;;;;;;9175418;19;20102;-66
2022/06/17 11:06:54;;;;;;;6.95;2.47;;;28.80;48.40;;;;;;9179726;19;20026;-67
2022/06/17 11:10:04;;;;;;;8.55;2.13;;;28.90;48.30;;;;;;9176868;19;20086;-65
2022/06/17 11:13:10;;;;;;;7.38;2.38;;;28.80;48.20;;;;;;9176002;19;20022;-68
2022/06/17 11:16:29;;;;;;;8.07;2.20;;;28.90;48.40;;;;;;9177967;19;20483;-68
2022/06/17 11:19:35;;;;;;;8.27;2.10;;;28.90;48.20;;;;;;9177089;19;20052;-67
2022/06/17 11:22:43;;;;;;;4.72;1.98;;;28.90;48.30;;;;;;9179237;19;20893;-66
2022/06/17 11:25:57;;;;;;;7.78;2.10;;;29.00;48.20;;;;;;9177163;19;20026;-67
2022/06/17 11:29:06;;;;;;;6.50;2.33;;;28.90;47.90;;;;;;9180106;19;20011;-65
2022/06/17 11:32:29;;;;;;;7.85;2.30;;;29.00;48.20;;;;;;9177156;19;20014;-69
2022/06/17 11:35:40;;;;;;;11.32;2.60;;;29.00;47.80;;;;;;9175758;19;20036;-67
2022/06/17 11:38:45;;;;;;;10.52;2.92;;;29.00;47.70;;;;;;9177787;19;20025;-65
2022/06/17 11:41:58;;;;;;;6.30;2.55;;;29.00;47.70;;;;;;9177818;19;20026;-68
2022/06/17 11:45:07;;;;;;;9.63;2.72;;;29.00;47.80;;;;;;9176605;19;20365;-65
2022/06/17 11:48:19;;;;;;;7.95;2.60;;;29.00;47.60;;;;;;9178071;19;20491;-66
2022/06/17 11:51:32;;;;;;;8.93;2.70;;;29.00;47.50;;;;;;9175190;19;20022;-66
2022/06/17 11:54:43;;;;;;;6.82;2.53;;;29.00;47.50;;;;;;9177688;19;20022;-67
2022/06/17 11:57:54;;;;;;;5.88;2.92;;;29.00;47.50;;;;;;9177946;19;20020;-67
2022/06/17 12:01:19;;;;;;;14.43;3.83;;;29.00;47.30;;;;;;9177037;19;20018;-65
2022/06/17 12:04:48;;;;;;;7.25;3.13;;;29.00;47.20;;;;;;9172154;19;20018;-66
2022/06/17 12:08:00;;;;;;;14.98;3.30;;;29.00;47.20;;;;;;9172948;19;20028;-69
2022/06/17 12:11:13;;;;;;;9.98;2.88;;;29.10;47.40;;;;;;9175227;19;20093;-65
2022/06/17 12:14:35;;;;;;;8.18;2.67;;;29.10;47.20;;;;;;9171769;19;20018;-69
2022/06/17 12:17:49;;;;;;;8.05;2.63;;;29.20;47.20;;;;;;9177137;19;20014;-67
2022/06/17 12:21:10;;;;;;;9.05;2.78;;;29.20;47.20;;;;;;9173881;19;20011;-65
2022/06/17 12:24:23;;;;;;;7.28;2.50;;;29.20;46.80;;;;;;9178245;19;20050;-67
2022/06/17 12:27:33;;;;;;;6.30;2.83;;;29.20;46.80;;;;;;9178006;19;20028;-65
2022/06/17 12:31:05;;;;;;;8.88;2.95;;;29.30;46.80;;;;;;9175778;19;20036;-65
2022/06/17 12:34:18;;;;;;;9.23;2.50;;;29.40;46.70;;;;;;9178224;19;20011;-66
2022/06/17 12:37:38;;;;;;;7.72;2.40;;;29.40;46.70;;;;;;9175646;19;20459;-66
2022/06/17 12:40:49;;;;;;;6.30;2.75;;;29.50;46.70;;;;;;9177432;19;20038;-66
2022/06/17 12:44:17;;;;;;;9.65;2.40;;;29.50;46.60;;;;;;9174372;19;20033;-67
2022/06/17 12:47:31;;;;;;;8.88;2.53;;;29.60;46.40;;;;;;9175646;19;20484;-66
2022/06/17 12:54:19;;;;;;;5.10;2.42;;;29.70;46.40;;;;;;9172410;19;20018;-63
2022/06/17 12:57:42;;;;;;;7.45;2.40;;;29.90;46.10;;;;;;9215101;19;20706;-62
2022/06/17 13:00:52;;;;;;;10.35;2.13;;;30.00;46.00;;;;;;9216562;19;20014;-61
2022/06/17 13:04:16;;;;;;;11.55;2.10;;;30.00;45.90;;;;;;9209214;19;20019;-61
2022/06/17 13:07:34;;;;;;;6.35;2.08;;;30.20;45.80;;;;;;9217696;19;20019;-66
2022/06/17 13:10:49;;;;;;;7.30;2.05;;;30.40;45.60;;;;;;9216069;19;20359;-61
2022/06/17 13:14:09;;;;;;;4.85;1.90;;;30.50;45.20;;;;;;9216466;19;20491;-62
2022/06/17 13:17:20;;;;;;;5.15;1.63;;;30.70;45.20;;;;;;9212406;19;20014;-64
2022/06/17 13:20:35;;;;;;;2.70;1.65;;;30.80;45.80;;;;;;9215882;19;20503;-62
2022/06/17 13:23:46;;;;;;;4.45;1.83;;;30.90;45.00;;;;;;9213380;19;20030;-61
2022/06/17 13:26:58;;;;;;;4.32;1.70;;;31.10;44.80;;;;;;9215725;19;20014;-61
2022/06/17 13:30:12;;;;;;;6.70;1.23;;;31.20;44.50;;;;;;9215124;19;20011;-61
2022/06/17 13:33:23;;;;;;;2.90;1.42;;;31.30;44.30;;;;;;9215523;19;20492;-64
2022/06/17 13:36:34;;;;;;;6.85;1.30;;;31.40;44.10;;;;;;9211389;19;20026;-61
2022/06/17 13:39:45;;;;;;;9.13;1.58;;;31.50;43.90;;;;;;9211373;19;20022;-63
2022/06/17 13:42:51;;;;;;;3.28;1.73;;;31.60;43.80;;;;;;9212332;19;20021;-62
2022/06/17 13:46:05;;;;;;;2.42;1.58;;;31.70;43.90;;;;;;9214238;19;20015;-63
2022/06/17 13:49:18;;;;;;;2.67;1.27;;;31.70;43.60;;;;;;9214973;19;20049;-63
2022/06/17 13:52:30;;;;;;;16.17;1.50;;;31.90;43.60;;;;;;9212995;19;20470;-64
2022/06/17 13:55:45;;;;;;;2.80;1.20;;;31.90;43.40;;;;;;9217701;19;20491;-65
2022/06/17 13:58:56;;;;;;;4.80;1.33;;;31.90;43.10;;;;;;9220373;19;20010;-66
2022/06/17 14:02:52;;;;;;;2.05;1.05;;;31.90;43.00;;;;;;9215739;19;20010;-65
2022/06/17 14:06:11;;;;;;;2.92;1.30;;;31.90;42.80;;;;;;9217131;19;20129;-65
2022/06/17 14:09:27;;;;;;;4.93;1.55;;;31.80;42.80;;;;;;9178538;19;20018;-62
2022/06/17 14:12:45;;;;;;;3.92;1.45;;;31.90;42.80;;;;;;9181763;19;20022;-62
2022/06/17 14:15:53;;;;;;;3.42;1.55;;;31.80;42.80;;;;;;9183918;19;20010;-64
2022/06/17 14:19:03;;;;;;;2.28;1.48;;;31.80;43.00;;;;;;9182485;19;20484;-66
2022/06/17 14:22:18;;;;;;;5.15;1.55;;;31.80;43.00;;;;;;9179616;19;20018;-65
2022/06/17 14:25:30;;;;;;;7.05;1.20;;;31.80;42.80;;;;;;9179487;19;20018;-65
2022/06/17 14:28:42;;;;;;;4.13;1.33;;;31.80;42.50;;;;;;9174624;19;20014;-65
2022/06/17 14:31:50;;;;;;;6.93;1.15;;;31.80;42.50;;;;;;9180657;19;20021;-64
2022/06/17 14:35:06;;;;;;;5.25;1.95;;;31.80;42.40;;;;;;9181563;19;20018;-64
2022/06/17 14:38:20;;;;;;;1.75;0.98;;;31.80;42.20;;;;;;9185893;19;20025;-67
2022/06/17 14:45:42;;;;;;;11.65;1.52;;;31.80;42.10;;;;;;9186613;19;20471;-66
2022/06/17 14:48:49;;;;;;;1.27;0.90;;;31.80;42.20;;;;;;9186571;19;20017;-66
2022/06/17 14:52:02;;;;;;;3.13;1.50;;;31.80;42.40;;;;;;9182461;19;20033;-66
2022/06/17 14:55:18;;;;;;;;;;;31.80;42.00;;;;;;9184086;19;20472;-63
2022/06/17 14:58:23;;;;;;;3.78;1.33;;;31.80;42.50;;;;;;9172943;19;19915;-65
2022/06/17 15:01:38;;;;;;;3.92;1.40;;;31.80;42.40;;;;;;9174433;19;20018;-64
2022/06/17 15:04:47;;;;;;;6.85;1.63;;;31.70;42.10;;;;;;9172322;19;20114;-66
2022/06/17 15:07:57;;;;;;;2.55;1.08;;;31.70;42.30;;;;;;9174772;19;20015;-64
2022/06/17 15:11:07;;;;;;;4.60;1.00;;;31.70;42.30;;;;;;9173501;19;20368;-65
2022/06/17 15:14:21;;;;;;;4.57;1.40;;;31.60;42.30;;;;;;9174174;19;20018;-65
2022/06/17 15:17:31;;;;;;;;;;;31.60;42.00;;;;;;9170491;19;20014;-65
2022/06/17 15:20:40;;;;;;;5.57;1.20;;;31.60;43.10;;;;;;9169397;19;20284;-66
2022/06/17 15:24:02;;;;;;;5.72;1.50;;;31.60;42.30;;;;;;9171850;19;20021;-66
2022/06/17 15:27:21;;;;;;;3.67;0.90;;;31.60;42.20;;;;;;9173277;19;20022;-64
2022/06/17 15:30:33;;;;;;;2.88;1.60;;;31.50;42.20;;;;;;9171014;19;20514;-64
2022/06/17 15:33:40;;;;;;;3.58;1.20;;;31.50;42.20;;;;;;9169405;19;20018;-65
2022/06/17 15:36:49;;;;;;;6.95;1.50;;;31.50;42.10;;;;;;9171303;19;20025;-66
2022/06/17 15:40:10;;;;;;;2.17;1.42;;;31.50;42.00;;;;;;9168761;19;20029;-65
2022/06/17 15:43:21;;;;;;;6.07;1.30;;;31.40;41.90;;;;;;9169549;19;20019;-66
2022/06/17 15:46:29;;;;;;;8.15;1.48;;;31.40;41.90;;;;;;9169321;19;20117;-67
2022/06/17 15:49:38;;;;;;;3.22;1.10;;;31.40;42.00;;;;;;9166731;19;20014;-66
2022/06/17 15:52:44;;;;;;;5.63;1.52;;;31.30;41.80;;;;;;9168810;19;20018;-67
2022/06/17 15:55:52;;;;;;;5.03;1.80;;;31.30;42.10;;;;;;9168726;19;20026;-66
2022/06/17 15:59:07;;;;;;;3.55;1.20;;;31.30;42.00;;;;;;9163736;19;20026;-66
2022/06/17 16:02:20;;;;;;;1.73;1.17;;;31.30;42.10;;;;;;9166177;19;20514;-64
2022/06/17 16:05:29;;;;;;;7.10;1.50;;;31.30;42.10;;;;;;9165258;19;20028;-64
2022/06/17 16:08:39;;;;;;;2.95;1.50;;;31.20;42.10;;;;;;9166480;19;20034;-67
2022/06/17 16:11:47;;;;;;;7.95;1.63;;;31.20;42.10;;;;;;9168609;19;20018;-64
2022/06/17 16:14:56;;;;;;;2.20;1.20;;;31.10;42.10;;;;;;9165624;19;20490;-64
2022/06/17 16:18:39;;;;;;;2.45;1.40;;;31.10;42.10;;;;;;9166492;19;20003;-63
2022/06/17 16:21:46;;;;;;;3.08;1.40;;;31.00;42.30;;;;;;9179681;19;20018;-63
2022/06/17 16:25:00;;;;;;;2.80;1.40;;;31.00;42.40;;;;;;9180736;19;20014;-64
2022/06/17 16:28:12;;;;;;;3.92;1.50;;;30.90;42.40;;;;;;9181659;19;20077;-63
2022/06/17 16:31:23;;;;;;;7.20;1.83;;;30.90;42.50;;;;;;9182274;19;20029;-64
2022/06/17 16:34:29;;;;;;;7.18;1.60;;;30.90;42.40;;;;;;9181763;19;20019;-63
2022/06/17 16:37:39;;;;;;;5.38;1.83;;;30.90;42.60;;;;;;9180786;19;20007;-64
2022/06/17 16:44:29;;;;;;;5.57;1.30;;;30.90;42.70;;;;;;9183688;19;20026;-64
2022/06/17 16:47:34;;;;;;;8.25;1.48;;;30.80;42.60;;;;;;9181742;19;20011;-64
2022/06/17 16:50:39;;;;;;;6.47;2.33;;;30.80;42.80;;;;;;9182278;19;20073;-67
2022/06/17 16:53:45;;;;;;;1.65;1.17;;;30.80;42.90;;;;;;9181029;19;20022;-64